createdAt,value
2022-07-28T00:00:23.459Z,101545.31
2022-07-28T00:01:25.752Z,101549.03
2022-07-28T00:02:29.122Z,101546.47
2022-07-28T00:03:31.647Z,101549.34
2022-07-28T00:04:35.240Z,101543.97
2022-07-28T00:05:37.441Z,101539.84
2022-07-28T00:06:40.567Z,101547.06
2022-07-28T00:07:42.705Z,101547.25
2022-07-28T00:08:45.830Z,101543.94
2022-07-28T00:09:47.997Z,101544.13
2022-07-28T00:10:51.178Z,101540.78
2022-07-28T00:11:54.922Z,101546.34
2022-07-28T00:12:59.763Z,101542.84
2022-07-28T00:14:01.929Z,101540.53
2022-07-28T00:15:07.533Z,101547.75
2022-07-28T00:16:09.988Z,101548.75
2022-07-28T00:17:13.174Z,101546.28
2022-07-28T00:18:15.318Z,101544.00
2022-07-28T00:19:18.560Z,101541.31
2022-07-28T00:20:21.406Z,101545.38
2022-07-28T00:21:25.081Z,101546.41
2022-07-28T00:22:27.282Z,101548.44
2022-07-28T00:23:38.970Z,101545.13
2022-07-28T00:24:41.996Z,101543.66
2022-07-28T00:25:45.156Z,101543.00
2022-07-28T00:26:47.396Z,101535.19
2022-07-28T00:27:50.562Z,101546.91
2022-07-28T00:28:52.746Z,101542.56
2022-07-28T00:29:55.913Z,101548.09
2022-07-28T00:31:05.584Z,101543.78
2022-07-28T00:32:12.009Z,101543.13
2022-07-28T00:33:14.467Z,101546.00
2022-07-28T00:34:18.124Z,101545.34
2022-07-28T00:35:30.387Z,101545.53
2022-07-28T00:36:34.863Z,101545.75
2022-07-28T00:37:39.676Z,101546.75
2022-07-28T00:38:43.885Z,101553.13
2022-07-28T00:39:46.547Z,101541.56
2022-07-28T00:41:07.776Z,101540.13
2022-07-28T00:42:12.272Z,101543.78
2022-07-28T00:43:14.479Z,101541.97
2022-07-28T00:44:18.201Z,101540.50
2022-07-28T00:45:20.307Z,101540.66
2022-07-28T00:46:25.244Z,101547.88
2022-07-28T00:47:27.451Z,101540.84
2022-07-28T00:48:39.099Z,101545.41
2022-07-28T00:49:41.464Z,101549.06
2022-07-28T00:50:45.805Z,101542.91
2022-07-28T00:51:49.605Z,101540.22
2022-07-28T00:52:52.097Z,101541.22
2022-07-28T00:53:55.952Z,101543.25
2022-07-28T00:54:58.923Z,101537.09
2022-07-28T00:56:05.353Z,101542.81
2022-07-28T00:57:09.684Z,101546.50
2022-07-28T00:58:11.852Z,101545.84
2022-07-28T00:59:15.006Z,101538.03
2022-07-28T01:00:17.554Z,101540.03
2022-07-28T01:01:21.502Z,101541.91
2022-07-28T01:02:25.290Z,101551.97
2022-07-28T01:03:29.352Z,101551.31
2022-07-28T01:04:33.371Z,101545.13
2022-07-28T01:05:44.457Z,101543.66
2022-07-28T01:06:59.651Z,101550.00
2022-07-28T01:08:08.066Z,101542.19
2022-07-28T01:09:20.760Z,101537.22
2022-07-28T01:10:34.058Z,101541.91
2022-07-28T01:11:48.004Z,101539.22
2022-07-28T01:12:58.674Z,101535.94
2022-07-28T01:14:10.939Z,101543.97
2022-07-28T01:15:20.415Z,101541.44
2022-07-28T01:16:23.832Z,101539.59
2022-07-28T01:17:37.178Z,101545.78
2022-07-28T01:18:43.373Z,101543.97
2022-07-28T01:19:51.760Z,101546.78
2022-07-28T01:21:00.111Z,101548.47
2022-07-28T01:22:05.402Z,101546.63
2022-07-28T01:23:38.314Z,101544.97
2022-07-28T01:24:52.766Z,101551.16
2022-07-28T01:26:12.166Z,101544.13
2022-07-28T01:27:37.051Z,101550.31
2022-07-28T01:28:52.673Z,101546.97
2022-07-28T01:30:05.264Z,101546.00
2022-07-28T01:31:13.340Z,101546.00
2022-07-28T01:32:21.935Z,101554.00
2022-07-28T01:33:32.442Z,101549.47
2022-07-28T01:34:41.337Z,101551.34
2022-07-28T01:35:48.725Z,101549.47
2022-07-28T01:36:55.197Z,101552.16
2022-07-28T01:38:02.078Z,101547.63
2022-07-28T01:39:04.297Z,101547.63
2022-07-28T01:40:10.461Z,101550.31
2022-07-28T01:41:19.225Z,101552.00
2022-07-28T01:42:24.146Z,101553.63
2022-07-28T01:43:29.820Z,101554.47
2022-07-28T01:44:35.340Z,101554.28
2022-07-28T01:45:41.205Z,101551.41
2022-07-28T01:46:46.780Z,101548.56
2022-07-28T01:47:51.880Z,101549.22
2022-07-28T01:48:55.813Z,101554.38
2022-07-28T01:50:02.785Z,101545.97
2022-07-28T01:51:08.616Z,101553.81
2022-07-28T01:52:10.802Z,101552.44
2022-07-28T01:53:17.203Z,101561.09
2022-07-28T01:54:23.099Z,101555.56
2022-07-28T01:55:27.367Z,101554.34
2022-07-28T01:56:32.779Z,101559.31
2022-07-28T01:57:38.276Z,101556.44
2022-07-28T01:58:43.431Z,101548.25
2022-07-28T01:59:47.507Z,101558.59
2022-07-28T02:00:52.365Z,101551.38
2022-07-28T02:01:58.797Z,101545.84
2022-07-28T02:03:03.815Z,101548.16
2022-07-28T02:04:08.594Z,101554.16
2022-07-28T02:05:13.928Z,101550.44
2022-07-28T02:06:19.961Z,101548.22
2022-07-28T02:07:25.226Z,101549.69
2022-07-28T02:08:29.664Z,101549.34
2022-07-28T02:09:33.560Z,101548.94
2022-07-28T02:10:37.301Z,101553.91
2022-07-28T02:11:42.401Z,101549.22
2022-07-28T02:12:46.714Z,101550.84
2022-07-28T02:13:51.283Z,101552.34
2022-07-28T02:14:54.956Z,101547.59
2022-07-28T02:15:58.295Z,101548.25
2022-07-28T02:17:07.868Z,101550.72
2022-07-28T02:18:12.691Z,101548.88
2022-07-28T02:19:18.453Z,101553.06
2022-07-28T02:20:23.744Z,101541.31
2022-07-28T02:21:27.427Z,101544.63
2022-07-28T02:22:31.992Z,101546.28
2022-07-28T02:23:35.107Z,101540.72
2022-07-28T02:24:39.446Z,101543.22
2022-07-28T02:25:42.223Z,101536.84
2022-07-28T02:26:49.798Z,101540.19
2022-07-28T02:27:58.703Z,101535.63
2022-07-28T02:29:04.690Z,101545.34
2022-07-28T02:30:11.655Z,101539.78
2022-07-28T02:31:21.214Z,101542.47
2022-07-28T02:32:29.515Z,101544.75
2022-07-28T02:33:58.534Z,101543.72
2022-07-28T02:35:04.810Z,101533.84
2022-07-28T02:36:12.575Z,101537.38
2022-07-28T02:37:19.493Z,101541.88
2022-07-28T02:38:27.173Z,101543.53
2022-07-28T02:39:36.527Z,101539.03
2022-07-28T02:40:42.279Z,101539.03
2022-07-28T02:41:44.623Z,101543.53
2022-07-28T02:42:50.869Z,101548.09
2022-07-28T02:43:56.879Z,101548.09
2022-07-28T02:45:03.256Z,101549.09
2022-07-28T02:46:11.701Z,101542.09
2022-07-28T02:47:20.848Z,101544.75
2022-07-28T02:48:27.696Z,101545.59
2022-07-28T02:49:33.879Z,101547.63
2022-07-28T02:50:40.958Z,101546.78
2022-07-28T02:51:45.377Z,101545.97
2022-07-28T02:52:50.203Z,101553.19
2022-07-28T02:53:54.168Z,101551.50
2022-07-28T02:54:59.867Z,101549.03
2022-07-28T02:56:03.497Z,101551.91
2022-07-28T02:57:08.020Z,101554.56
2022-07-28T02:58:11.383Z,101556.41
2022-07-28T02:59:16.046Z,101548.38
2022-07-28T03:00:18.718Z,101553.75
2022-07-28T03:01:23.004Z,101555.59
2022-07-28T03:02:30.772Z,101551.91
2022-07-28T03:03:34.938Z,101558.94
2022-07-28T03:04:58.921Z,101558.94
2022-07-28T03:06:02.819Z,101556.25
2022-07-28T03:07:05.266Z,101554.19
2022-07-28T03:08:08.779Z,101564.91
2022-07-28T03:09:11.171Z,101560.38
2022-07-28T03:10:33.621Z,101558.53
2022-07-28T03:11:36.850Z,101567.22
2022-07-28T03:12:39.984Z,101567.22
2022-07-28T03:13:42.271Z,101566.19
2022-07-28T03:14:45.425Z,101561.69
2022-07-28T03:15:47.658Z,101561.47
2022-07-28T03:16:55.400Z,101569.53
2022-07-28T03:17:59.121Z,101566.66
2022-07-28T03:19:02.851Z,101560.25
2022-07-28T03:20:07.618Z,101568.09
2022-07-28T03:21:09.699Z,101567.91
2022-07-28T03:22:12.970Z,101568.94
2022-07-28T03:23:17.359Z,101570.44
2022-07-28T03:24:21.408Z,101571.06
2022-07-28T03:25:28.029Z,101574.59
2022-07-28T03:26:39.086Z,101573.56
2022-07-28T03:27:46.898Z,101572.56
2022-07-28T03:28:52.619Z,101567.00
2022-07-28T03:30:03.610Z,101573.81
2022-07-28T03:31:09.858Z,101570.97
2022-07-28T03:32:13.826Z,101568.91
2022-07-28T03:33:17.250Z,101570.56
2022-07-28T03:34:21.123Z,101578.41
2022-07-28T03:35:25.271Z,101575.09
2022-07-28T03:36:40.870Z,101566.88
2022-07-28T03:37:57.076Z,101572.66
2022-07-28T03:39:02.573Z,101574.31
2022-07-28T03:40:09.243Z,101571.63
2022-07-28T03:41:13.597Z,101577.63
2022-07-28T03:42:19.184Z,101579.13
2022-07-28T03:43:25.002Z,101573.56
2022-07-28T03:44:28.962Z,101575.22
2022-07-28T03:45:32.899Z,101575.00
2022-07-28T03:46:35.987Z,101574.81
2022-07-28T03:47:39.181Z,101578.34
2022-07-28T03:48:41.381Z,101571.13
2022-07-28T03:49:48.338Z,101569.91
2022-07-28T03:50:50.457Z,101572.38
2022-07-28T03:51:53.577Z,101573.22
2022-07-28T03:52:56.671Z,101585.63
2022-07-28T03:53:59.797Z,101584.59
2022-07-28T03:55:02.049Z,101584.41
2022-07-28T03:56:06.677Z,101586.03
2022-07-28T03:57:08.780Z,101573.47
2022-07-28T03:58:11.926Z,101573.28
2022-07-28T03:59:14.119Z,101577.84
2022-07-28T04:00:18.610Z,101578.63
2022-07-28T04:01:20.767Z,101581.13
2022-07-28T04:02:24.017Z,101578.44
2022-07-28T04:03:42.512Z,101577.44
2022-07-28T04:04:48.849Z,101583.63
2022-07-28T04:05:51.101Z,101591.50
2022-07-28T04:06:54.279Z,101592.31
2022-07-28T04:07:56.433Z,101587.78
2022-07-28T04:08:59.659Z,101587.38
2022-07-28T04:10:01.824Z,101594.41
2022-07-28T04:11:05.616Z,101583.69
2022-07-28T04:12:08.555Z,101588.66
2022-07-28T04:13:12.430Z,101593.00
2022-07-28T04:14:16.941Z,101587.63
2022-07-28T04:15:20.583Z,101589.91
2022-07-28T04:16:22.873Z,101590.75
2022-07-28T04:17:26.075Z,101592.22
2022-07-28T04:18:28.244Z,101592.84
2022-07-28T04:19:31.361Z,101599.03
2022-07-28T04:20:35.009Z,101592.47
2022-07-28T04:21:38.242Z,101590.41
2022-07-28T04:22:40.562Z,101589.41
2022-07-28T04:23:43.721Z,101589.84
2022-07-28T04:24:45.849Z,101590.28
2022-07-28T04:25:49.437Z,101589.88
2022-07-28T04:26:51.554Z,101594.03
2022-07-28T04:27:57.035Z,101590.13
2022-07-28T04:29:03.264Z,101595.09
2022-07-28T04:30:09.034Z,101596.53
2022-07-28T04:31:13.045Z,101599.66
2022-07-28T04:32:17.945Z,101597.63
2022-07-28T04:33:20.463Z,101595.97
2022-07-28T04:34:24.643Z,101593.13
2022-07-28T04:35:28.362Z,101603.47
2022-07-28T04:36:32.924Z,101597.69
2022-07-28T04:37:35.393Z,101597.34
2022-07-28T04:38:38.653Z,101596.94
2022-07-28T04:39:41.338Z,101591.16
2022-07-28T04:40:44.714Z,101587.84
2022-07-28T04:41:47.410Z,101592.44
2022-07-28T04:42:51.532Z,101589.53
2022-07-28T04:43:53.689Z,101589.34
2022-07-28T04:44:56.923Z,101591.81
2022-07-28T04:45:59.136Z,101597.00
2022-07-28T04:47:02.232Z,101593.91
2022-07-28T04:48:08.454Z,101598.88
2022-07-28T04:49:11.735Z,101595.81
2022-07-28T04:50:16.040Z,101595.44
2022-07-28T04:51:23.315Z,101601.03
2022-07-28T04:52:27.135Z,101599.59
2022-07-28T04:53:30.765Z,101598.19
2022-07-28T04:54:32.935Z,101593.44
2022-07-28T04:55:38.737Z,101600.06
2022-07-28T04:56:41.917Z,101602.97
2022-07-28T04:57:44.348Z,101603.59
2022-07-28T04:58:48.667Z,101605.06
2022-07-28T04:59:51.339Z,101605.50
2022-07-28T05:00:55.641Z,101597.25
2022-07-28T05:01:58.628Z,101605.94
2022-07-28T05:03:02.710Z,101600.97
2022-07-28T05:04:05.171Z,101595.19
2022-07-28T05:05:09.020Z,101598.91
2022-07-28T05:06:11.327Z,101596.00
2022-07-28T05:07:14.459Z,101595.00
2022-07-28T05:08:18.220Z,101595.81
2022-07-28T05:09:21.865Z,101596.22
2022-07-28T05:10:24.185Z,101593.34
2022-07-28T05:11:27.329Z,101598.34
2022-07-28T05:12:29.613Z,101591.50
2022-07-28T05:13:34.438Z,101590.28
2022-07-28T05:14:36.743Z,101600.41
2022-07-28T05:15:39.886Z,101597.09
2022-07-28T05:16:42.091Z,101596.53
2022-07-28T05:17:45.942Z,101599.41
2022-07-28T05:18:48.149Z,101597.75
2022-07-28T05:19:51.420Z,101604.19
2022-07-28T05:20:54.533Z,101595.28
2022-07-28T05:21:56.661Z,101607.91
2022-07-28T05:22:59.902Z,101601.91
2022-07-28T05:24:03.728Z,101599.44
2022-07-28T05:25:14.437Z,101610.19
2022-07-28T05:26:16.387Z,101605.22
2022-07-28T05:27:19.532Z,101602.78
2022-07-28T05:28:21.675Z,101613.75
2022-07-28T05:29:25.589Z,101607.72
2022-07-28T05:30:40.839Z,101607.75
2022-07-28T05:31:42.992Z,101608.97
2022-07-28T05:32:46.382Z,101610.44
2022-07-28T05:33:48.486Z,101613.34
2022-07-28T05:34:52.118Z,101614.97
2022-07-28T05:35:57.534Z,101617.25
2022-07-28T05:37:02.308Z,101612.47
2022-07-28T05:38:08.916Z,101616.81
2022-07-28T05:39:16.221Z,101620.13
2022-07-28T05:40:18.456Z,101619.13
2022-07-28T05:41:22.054Z,101620.75
2022-07-28T05:42:26.548Z,101617.63
2022-07-28T05:43:29.680Z,101629.03
2022-07-28T05:44:37.656Z,101628.00
2022-07-28T05:45:41.588Z,101645.41
2022-07-28T05:46:43.782Z,101630.06
2022-07-28T05:47:48.121Z,101631.94
2022-07-28T05:48:51.833Z,101633.97
2022-07-28T05:49:55.089Z,101630.06
2022-07-28T05:50:58.311Z,101633.59
2022-07-28T05:52:00.401Z,101623.41
2022-07-28T05:53:03.602Z,101637.50
2022-07-28T05:54:06.055Z,101623.00
2022-07-28T05:55:11.312Z,101626.28
2022-07-28T05:56:14.441Z,101630.44
2022-07-28T05:57:16.578Z,101626.50
2022-07-28T05:58:22.680Z,101623.59
2022-07-28T05:59:24.802Z,101632.28
2022-07-28T06:00:28.439Z,101629.59
2022-07-28T06:01:36.421Z,101637.25
2022-07-28T06:02:39.905Z,101634.16
2022-07-28T06:03:42.750Z,101632.03
2022-07-28T06:04:46.436Z,101634.34
2022-07-28T06:06:14.263Z,101632.25
2022-07-28T06:07:13.767Z,101626.44
2022-07-28T06:08:15.868Z,101638.22
2022-07-28T06:09:19.008Z,101630.53
2022-07-28T06:10:26.393Z,101636.56
2022-07-28T06:11:29.532Z,101629.09
2022-07-28T06:12:31.669Z,101624.09
2022-07-28T06:13:34.869Z,101633.00
2022-07-28T06:14:38.025Z,101630.91
2022-07-28T06:15:40.219Z,101629.06
2022-07-28T06:16:43.642Z,101631.75
2022-07-28T06:17:45.862Z,101636.09
2022-07-28T06:18:49.191Z,101628.00
2022-07-28T06:19:52.298Z,101636.09
2022-07-28T06:20:54.386Z,101627.19
2022-07-28T06:21:57.620Z,101631.31
2022-07-28T06:22:59.867Z,101626.16
2022-07-28T06:24:03.032Z,101631.13
2022-07-28T06:25:05.782Z,101635.28
2022-07-28T06:26:10.282Z,101632.38
2022-07-28T06:27:13.481Z,101641.09
2022-07-28T06:28:16.642Z,101631.94
2022-07-28T06:29:19.002Z,101637.94
2022-07-28T06:30:22.560Z,101641.25
2022-07-28T06:31:25.765Z,101641.88
2022-07-28T06:32:28.971Z,101636.06
2022-07-28T06:33:31.148Z,101635.41
2022-07-28T06:34:34.229Z,101643.88
2022-07-28T06:35:46.689Z,101649.91
2022-07-28T06:36:54.340Z,101649.03
2022-07-28T06:37:56.530Z,101659.16
2022-07-28T06:38:59.702Z,101655.00
2022-07-28T06:40:02.177Z,101650.00
2022-07-28T06:41:05.500Z,101651.44
2022-07-28T06:42:10.074Z,101652.44
2022-07-28T06:43:14.525Z,101653.88
2022-07-28T06:44:17.994Z,101645.56
2022-07-28T06:45:21.834Z,101657.56
2022-07-28T06:46:25.291Z,101650.69
2022-07-28T06:47:27.503Z,101651.94
2022-07-28T06:48:34.052Z,101657.69
2022-07-28T06:49:36.253Z,101649.41
2022-07-28T06:50:39.751Z,101650.22
2022-07-28T06:51:42.965Z,101647.50
2022-07-28T06:52:46.207Z,101656.44
2022-07-28T06:53:48.931Z,101652.28
2022-07-28T06:54:58.119Z,101647.34
2022-07-28T06:56:00.620Z,101642.78
2022-07-28T06:57:04.263Z,101653.56
2022-07-28T06:58:07.953Z,101652.53
2022-07-28T06:59:11.271Z,101645.25
2022-07-28T07:00:14.317Z,101650.44
2022-07-28T07:01:18.060Z,101649.41
2022-07-28T07:02:23.889Z,101651.88
2022-07-28T07:03:30.921Z,101654.38
2022-07-28T07:04:33.981Z,101658.69
2022-07-28T07:05:39.011Z,101657.22
2022-07-28T07:06:42.195Z,101663.03
2022-07-28T07:07:44.413Z,101660.72
2022-07-28T07:08:50.754Z,101660.03
2022-07-28T07:09:53.280Z,101664.16
2022-07-28T07:10:56.930Z,101660.59
2022-07-28T07:12:00.029Z,101659.09
2022-07-28T07:13:04.251Z,101669.28
2022-07-28T07:14:09.283Z,101661.59
2022-07-28T07:15:12.165Z,101654.91
2022-07-28T07:16:15.542Z,101657.97
2022-07-28T07:17:18.111Z,101660.25
2022-07-28T07:18:21.349Z,101656.28
2022-07-28T07:19:23.511Z,101646.06
2022-07-28T07:20:26.637Z,101647.28
2022-07-28T07:21:29.786Z,101659.53
2022-07-28T07:22:31.992Z,101652.00
2022-07-28T07:23:35.966Z,101659.69
2022-07-28T07:24:39.997Z,101662.38
2022-07-28T07:25:43.422Z,101660.88
2022-07-28T07:26:45.569Z,101656.69
2022-07-28T07:27:49.125Z,101661.66
2022-07-28T07:28:54.771Z,101662.88
2022-07-28T07:29:58.342Z,101661.97
2022-07-28T07:31:02.765Z,101660.25
2022-07-28T07:32:10.410Z,101661.44
2022-07-28T07:33:13.984Z,101663.47
2022-07-28T07:34:16.718Z,101660.31
2022-07-28T07:35:20.300Z,101664.19
2022-07-28T07:36:23.124Z,101662.72
2022-07-28T07:37:26.937Z,101659.56
2022-07-28T07:38:36.829Z,101665.13
2022-07-28T07:39:44.264Z,101667.13
2022-07-28T07:40:46.423Z,101662.94
2022-07-28T07:41:49.560Z,101654.59
2022-07-28T07:42:52.520Z,101660.16
2022-07-28T07:43:57.012Z,101665.97
2022-07-28T07:45:01.685Z,101662.00
2022-07-28T07:46:05.055Z,101665.28
2022-07-28T07:47:09.497Z,101666.72
2022-07-28T07:48:12.838Z,101660.84
2022-07-28T07:49:17.139Z,101670.38
2022-07-28T07:50:20.373Z,101664.28
2022-07-28T07:51:23.610Z,101665.47
2022-07-28T07:52:25.928Z,101665.03
2022-07-28T07:53:29.167Z,101661.84
2022-07-28T07:54:31.513Z,101663.50
2022-07-28T07:55:37.759Z,101665.97
2022-07-28T07:56:41.180Z,101665.97
2022-07-28T07:57:44.402Z,101661.41
2022-07-28T07:58:46.675Z,101669.28
2022-07-28T07:59:50.377Z,101671.53
2022-07-28T08:00:54.978Z,101669.41
2022-07-28T08:01:57.385Z,101671.91
2022-07-28T08:03:01.442Z,101665.06
2022-07-28T08:04:03.869Z,101670.63
2022-07-28T08:05:08.613Z,101667.31
2022-07-28T08:06:13.493Z,101667.31
2022-07-28T08:07:18.975Z,101669.78
2022-07-28T08:08:25.606Z,101661.66
2022-07-28T08:09:27.786Z,101672.25
2022-07-28T08:10:30.925Z,101666.84
2022-07-28T08:11:33.083Z,101669.94
2022-07-28T08:12:36.501Z,101660.72
2022-07-28T08:13:38.659Z,101677.81
2022-07-28T08:14:41.935Z,101668.06
2022-07-28T08:15:51.621Z,101666.16
2022-07-28T08:16:56.814Z,101669.09
2022-07-28T08:18:00.339Z,101670.75
2022-07-28T08:19:02.871Z,101664.50
2022-07-28T08:20:06.868Z,101664.28
2022-07-28T08:21:09.040Z,101662.78
2022-07-28T08:22:12.162Z,101664.78
2022-07-28T08:23:16.282Z,101667.63
2022-07-28T08:24:32.370Z,101667.50
2022-07-28T08:25:38.148Z,101661.19
2022-07-28T08:26:40.659Z,101665.44
2022-07-28T08:27:43.995Z,101660.97
2022-07-28T08:28:47.462Z,101663.84
2022-07-28T08:29:49.679Z,101665.47
2022-07-28T08:30:52.912Z,101665.47
2022-07-28T08:31:56.606Z,101675.72
2022-07-28T08:32:59.838Z,101668.66
2022-07-28T08:34:03.840Z,101674.75
2022-07-28T08:35:35.861Z,101665.19
2022-07-28T08:36:39.341Z,101668.97
2022-07-28T08:37:41.501Z,101672.72
2022-07-28T08:38:44.736Z,101664.81
2022-07-28T08:39:47.885Z,101669.44
2022-07-28T08:40:51.907Z,101666.13
2022-07-28T08:42:00.191Z,101663.56
2022-07-28T08:43:10.460Z,101672.03
2022-07-28T08:44:16.654Z,101669.69
2022-07-28T08:45:21.747Z,101672.19
2022-07-28T08:46:26.784Z,101662.16
2022-07-28T08:47:40.575Z,101667.78
2022-07-28T08:48:52.033Z,101656.75
2022-07-28T08:49:54.946Z,101662.78
2022-07-28T08:51:01.647Z,101666.06
2022-07-28T08:52:05.176Z,101668.31
2022-07-28T08:53:08.221Z,101672.44
2022-07-28T08:54:17.457Z,101662.78
2022-07-28T08:55:24.578Z,101656.91
2022-07-28T08:56:39.437Z,101661.97
2022-07-28T08:57:54.490Z,101658.09
2022-07-28T08:59:03.854Z,101664.22
2022-07-28T09:00:07.382Z,101659.50
2022-07-28T09:01:11.212Z,101658.53
2022-07-28T09:02:15.932Z,101664.69
2022-07-28T09:03:21.077Z,101661.84
2022-07-28T09:04:24.623Z,101663.63
2022-07-28T09:05:27.556Z,101664.53
2022-07-28T09:06:31.440Z,101660.88
2022-07-28T09:07:34.759Z,101650.38
2022-07-28T09:08:38.548Z,101653.91
2022-07-28T09:09:40.804Z,101650.13
2022-07-28T09:10:43.932Z,101660.53
2022-07-28T09:11:46.039Z,101657.59
2022-07-28T09:12:49.261Z,101650.03
2022-07-28T09:13:54.037Z,101661.47
2022-07-28T09:14:57.483Z,101655.22
2022-07-28T09:16:00.212Z,101658.16
2022-07-28T09:17:05.240Z,101652.41
2022-07-28T09:18:08.042Z,101650.59
2022-07-28T09:19:12.656Z,101662.16
2022-07-28T09:20:17.513Z,101655.00
2022-07-28T09:21:20.101Z,101656.28
2022-07-28T09:22:23.441Z,101648.03
2022-07-28T09:23:43.376Z,101656.06
2022-07-28T09:24:48.522Z,101652.31
2022-07-28T09:26:10.216Z,101650.19
2022-07-28T09:27:16.403Z,101656.44
2022-07-28T09:28:20.405Z,101659.97
2022-07-28T09:29:24.979Z,101660.91
2022-07-28T09:30:32.811Z,101648.53
2022-07-28T09:31:35.047Z,101655.47
2022-07-28T09:32:39.128Z,101648.28
2022-07-28T09:33:53.460Z,101652.88
2022-07-28T09:34:58.244Z,101656.25
2022-07-28T09:36:00.789Z,101652.66
2022-07-28T09:37:05.907Z,101647.31
2022-07-28T09:38:08.103Z,101653.66
2022-07-28T09:39:11.287Z,101653.19
2022-07-28T09:40:14.589Z,101657.56
2022-07-28T09:41:21.810Z,101643.97
2022-07-28T09:42:25.879Z,101655.66
2022-07-28T09:43:35.372Z,101655.19
2022-07-28T09:44:38.541Z,101657.66
2022-07-28T09:45:40.685Z,101659.88
2022-07-28T09:46:43.987Z,101655.88
2022-07-28T09:47:46.568Z,101658.34
2022-07-28T09:48:55.808Z,101656.22
2022-07-28T09:50:01.044Z,101658.94
2022-07-28T09:51:13.812Z,101658.94
2022-07-28T09:52:28.411Z,101658.69
2022-07-28T09:53:30.567Z,101662.78
2022-07-28T09:54:38.734Z,101650.78
2022-07-28T09:55:54.818Z,101654.75
2022-07-28T09:56:58.020Z,101655.94
2022-07-28T09:58:09.325Z,101655.44
2022-07-28T09:59:14.582Z,101656.13
2022-07-28T10:00:27.909Z,101651.94
2022-07-28T10:01:35.800Z,101656.50
2022-07-28T10:02:39.998Z,101645.47
2022-07-28T10:03:44.357Z,101642.75
2022-07-28T10:04:51.735Z,101643.22
2022-07-28T10:05:58.994Z,101648.66
2022-07-28T10:07:03.537Z,101650.53
2022-07-28T10:08:06.534Z,101653.50
2022-07-28T10:09:14.398Z,101652.19
2022-07-28T10:10:21.235Z,101650.28
2022-07-28T10:11:26.928Z,101648.16
2022-07-28T10:12:30.847Z,101644.34
2022-07-28T10:13:34.147Z,101650.13
2022-07-28T10:14:37.290Z,101654.25
2022-07-28T10:15:58.055Z,101652.38
2022-07-28T10:17:05.897Z,101656.13
2022-07-28T10:18:09.421Z,101653.66
2022-07-28T10:19:12.583Z,101653.91
2022-07-28T10:20:16.613Z,101656.28
2022-07-28T10:21:21.651Z,101650.78
2022-07-28T10:22:27.839Z,101655.34
2022-07-28T10:23:31.452Z,101655.00
2022-07-28T10:24:38.006Z,101651.97
2022-07-28T10:25:41.972Z,101647.84
2022-07-28T10:26:46.914Z,101651.06
2022-07-28T10:27:49.581Z,101655.31
2022-07-28T10:28:55.219Z,101654.63
2022-07-28T10:30:00.729Z,101648.41
2022-07-28T10:31:05.085Z,101662.13
2022-07-28T10:32:09.655Z,101655.53
2022-07-28T10:33:15.366Z,101655.44
2022-07-28T10:34:24.465Z,101649.66
2022-07-28T10:35:28.820Z,101653.47
2022-07-28T10:36:34.342Z,101662.09
2022-07-28T10:37:46.661Z,101656.88
2022-07-28T10:38:51.691Z,101649.81
2022-07-28T10:40:06.515Z,101655.81
2022-07-28T10:41:15.042Z,101649.06
2022-07-28T10:42:18.758Z,101650.75
2022-07-28T10:43:22.157Z,101638.75
2022-07-28T10:44:26.065Z,101644.47
2022-07-28T10:45:48.125Z,101644.72
2022-07-28T10:46:52.951Z,101652.38
2022-07-28T10:47:55.297Z,101649.41
2022-07-28T10:48:59.766Z,101650.59
2022-07-28T10:50:08.752Z,101655.78
2022-07-28T10:51:11.933Z,101652.81
2022-07-28T10:52:37.748Z,101648.22
2022-07-28T10:53:46.727Z,101643.59
2022-07-28T10:55:00.060Z,101641.72
2022-07-28T10:56:07.555Z,101657.75
2022-07-28T10:57:13.762Z,101641.72
2022-07-28T10:58:25.468Z,101644.91
2022-07-28T10:59:55.837Z,101637.97
2022-07-28T11:01:05.950Z,101640.03
2022-07-28T11:02:08.829Z,101636.63
2022-07-28T11:03:13.947Z,101641.72
2022-07-28T11:04:59.141Z,101634.75
2022-07-28T11:06:26.569Z,101644.59
2022-07-28T11:07:40.699Z,101637.63
2022-07-28T11:08:42.955Z,101632.56
2022-07-28T11:09:52.189Z,101648.75
2022-07-28T11:11:07.479Z,101649.72
2022-07-28T11:12:15.351Z,101646.88
2022-07-28T11:13:33.216Z,101640.28
2022-07-28T11:14:38.135Z,101642.03
2022-07-28T11:15:43.407Z,101646.31
2022-07-28T11:16:46.579Z,101644.28
2022-07-28T11:17:59.731Z,101640.41
2022-07-28T11:19:07.786Z,101646.88
2022-07-28T11:21:07.969Z,101654.44
2022-07-28T11:22:29.176Z,101649.25
2022-07-28T11:23:55.031Z,101642.19
2022-07-28T11:25:21.887Z,101648.44
2022-07-28T11:26:38.211Z,101646.31
2022-07-28T11:28:05.899Z,101644.41
2022-07-28T11:29:18.898Z,101652.78
2022-07-28T11:30:53.381Z,101644.06
2022-07-28T11:32:05.360Z,101648.91
2022-07-28T11:33:09.281Z,101655.38
2022-07-28T11:34:12.997Z,101655.59
2022-07-28T11:35:16.464Z,101646.06
2022-07-28T11:36:20.220Z,101648.78
2022-07-28T11:37:23.388Z,101650.44
2022-07-28T11:38:26.410Z,101649.94
2022-07-28T11:39:31.902Z,101648.44
2022-07-28T11:40:47.248Z,101647.47
2022-07-28T11:41:50.413Z,101645.94
2022-07-28T11:43:13.537Z,101653.13
2022-07-28T11:44:25.299Z,101646.78
2022-07-28T11:45:37.587Z,101651.47
2022-07-28T11:46:45.691Z,101646.41
2022-07-28T11:48:09.383Z,101645.31
2022-07-28T11:49:27.663Z,101652.41
2022-07-28T11:50:31.145Z,101653.47
2022-07-28T11:51:38.788Z,101646.16
2022-07-28T11:52:56.709Z,101658.66
2022-07-28T11:53:59.010Z,101656.28
2022-07-28T11:55:04.554Z,101640.59
2022-07-28T11:56:08.713Z,101644.94
2022-07-28T11:57:12.125Z,101642.84
2022-07-28T11:58:27.678Z,101641.53
2022-07-28T11:59:49.717Z,101641.91
2022-07-28T12:01:13.282Z,101642.59
2022-07-28T12:02:17.544Z,101638.94
2022-07-28T12:03:49.719Z,101642.34
2022-07-28T12:04:59.835Z,101634.31
2022-07-28T12:06:03.169Z,101646.31
2022-07-28T12:07:06.770Z,101643.09
2022-07-28T12:08:09.938Z,101649.13
2022-07-28T12:09:13.465Z,101647.25
2022-07-28T12:11:58.491Z,101647.00
2022-07-28T12:13:03.882Z,101628.97
2022-07-28T12:14:07.837Z,101648.72
2022-07-28T12:15:16.089Z,101644.47
2022-07-28T12:16:19.420Z,101642.94
2022-07-28T12:17:22.201Z,101646.22
2022-07-28T12:18:25.502Z,101649.50
2022-07-28T12:19:32.588Z,101643.28
2022-07-28T12:20:48.824Z,101642.44
2022-07-28T12:21:52.881Z,101641.38
2022-07-28T12:22:58.135Z,101641.13
2022-07-28T12:24:01.793Z,101639.81
2022-07-28T12:25:05.960Z,101651.03
2022-07-28T12:26:40.705Z,101640.84
2022-07-28T12:27:44.735Z,101636.56
2022-07-28T12:28:51.636Z,101629.00
2022-07-28T12:29:57.466Z,101637.47
2022-07-28T12:31:11.384Z,101633.44
2022-07-28T12:32:14.683Z,101644.38
2022-07-28T12:33:17.915Z,101646.19
2022-07-28T12:34:21.216Z,101647.06